Asia, Texas
Current Conditions -  °F | °C
As of 7:53 PM on Friday 21 Nov 2014 (Local Time) from KLFK Reporting Station
Light Rain Light Rain  
Wind Chill: 63°   Ceiling: 4800
Heat Index: 63°   Visibility: 10mi
Dew Point: 57°   Wind: 10mph
Humidity: 81%   Direction: 120°ESE
Pressure: 30.16"   Gusts: NA
Location:  31.024°N, 94.7686°W
Report Text: KLFK 220153Z AUTO 12009KT 10SM -RA BKN048 OVC060 17/14 A3016 RMK AO2 RAB42 SLP211 P0000 T01720139
Loading
Personal Weather Stations






























Interactive Weather Map New forecast layout! Learn more

10-Day Weather Forecast

Advertisements
Track Severe Weather on mobile